RYR61SZ LFOB-LPPR
Flight info
| Callsign | RYR61SZ |
|---|---|
| Flight time | N/A |
| Altitude | 35000 |
| Route | LGL UT176 TERPO UN872 ERIGA UZ218 FUJTI/N0448F370 DCT ATLEN DCT INSID T326 ASPOR |
| Aircraft | B38M/M-SADE3FGILRWY/SB1 |
Departure
| Time | 2026-05-04 13:47 |
|---|---|
| Airport | Beauvais-Tillé airport (LFOB) |
Arrival
| Time | N/A |
|---|---|
| Airport | Francisco de Sá Carneiro Airport (LPPR) |
| Time | Latitude | Longitude | Altitude | Speed | Heading |
|---|---|---|---|---|---|
| 2026-05-04 13:25 | 49.45921 | 2.11473 | 358 ft | 0 kts | 312° |
| 2026-05-04 13:39 | 49.45916 | 2.11482 | 363 ft | 2 kts | 310° |
| 2026-05-04 13:39 | 49.45905 | 2.11501 | 364 ft | 2 kts | 311° |
| 2026-05-04 13:39 | 49.45894 | 2.11520 | 359 ft | 2 kts | 308° |
| 2026-05-04 13:39 | 49.45886 | 2.11542 | 360 ft | 2 kts | 270° |
| 2026-05-04 13:40 | 49.45890 | 2.11558 | 363 ft | 1 kts | 223° |
| 2026-05-04 13:40 | 49.45891 | 2.11559 | 363 ft | 0 kts | 222° |
| 2026-05-04 13:43 | 49.45890 | 2.11558 | 363 ft | 1 kts | 222° |
| 2026-05-04 13:43 | 49.45864 | 2.11522 | 358 ft | 13 kts | 221° |
| 2026-05-04 13:43 | 49.45767 | 2.11382 | 359 ft | 22 kts | 223° |
| 2026-05-04 13:43 | 49.45700 | 2.11240 | 353 ft | 10 kts | 298° |
| 2026-05-04 13:44 | 49.45746 | 2.11140 | 358 ft | 12 kts | 305° |
| 2026-05-04 13:44 | 49.45774 | 2.11078 | 358 ft | 2 kts | 305° |
| 2026-05-04 13:44 | 49.45785 | 2.11056 | 356 ft | 3 kts | 305° |
| 2026-05-04 13:44 | 49.45792 | 2.11009 | 357 ft | 6 kts | 265° |
| 2026-05-04 13:45 | 49.45772 | 2.10967 | 360 ft | 1 kts | 214° |
| 2026-05-04 13:45 | 49.45755 | 2.10950 | 355 ft | 8 kts | 213° |
| 2026-05-04 13:45 | 49.45665 | 2.10869 | 361 ft | 20 kts | 226° |
| 2026-05-04 13:45 | 49.45697 | 2.10688 | 364 ft | 19 kts | 303° |
| 2026-05-04 13:46 | 49.45776 | 2.10518 | 364 ft | 19 kts | 311° |
| 2026-05-04 13:46 | 49.45846 | 2.10414 | 363 ft | 9 kts | 255° |
| 2026-05-04 13:46 | 49.45828 | 2.10401 | 366 ft | 5 kts | 182° |
| 2026-05-04 13:46 | 49.45803 | 2.10448 | 367 ft | 13 kts | 123° |
| 2026-05-04 13:47 | 49.45612 | 2.10883 | 359 ft | 95 kts | 123° |
| 2026-05-04 13:47 | 49.45082 | 2.12080 | 388 ft | 168 kts | 123° |
| 2026-05-04 13:47 | 49.44385 | 2.13668 | 1131 ft | 185 kts | 117° |
| 2026-05-04 13:47 | 49.43876 | 2.15563 | 2038 ft | 203 kts | 108° |
| 2026-05-04 13:48 | 49.43739 | 2.17819 | 2700 ft | 229 kts | 75° |
| 2026-05-04 13:48 | 49.44638 | 2.19946 | 3427 ft | 252 kts | 37° |
| 2026-05-04 13:48 | 49.46312 | 2.20875 | 4403 ft | 262 kts | 0° |
| 2026-05-04 13:48 | 49.48038 | 2.20103 | 5704 ft | 263 kts | 327° |
| 2026-05-04 13:49 | 49.49247 | 2.17957 | 6699 ft | 275 kts | 294° |
| 2026-05-04 13:49 | 49.49527 | 2.15107 | 7762 ft | 277 kts | 264° |
| 2026-05-04 13:49 | 49.49059 | 2.12205 | 8778 ft | 285 kts | 246° |
| 2026-05-04 13:49 | 49.47966 | 2.09664 | 9874 ft | 286 kts | 227° |
| 2026-05-04 13:50 | 49.46630 | 2.07339 | 10734 ft | 296 kts | 229° |
| 2026-05-04 13:50 | 49.45257 | 2.04856 | 11479 ft | 312 kts | 229° |
| 2026-05-04 13:50 | 49.43830 | 2.02251 | 12344 ft | 325 kts | 229° |
| 2026-05-04 13:50 | 49.42376 | 1.99583 | 13424 ft | 330 kts | 229° |
| 2026-05-04 13:51 | 49.40886 | 1.96850 | 14376 ft | 337 kts | 229° |
| 2026-05-04 13:51 | 49.39386 | 1.94097 | 15319 ft | 339 kts | 229° |
| 2026-05-04 13:51 | 49.37845 | 1.91326 | 16151 ft | 345 kts | 225° |
| 2026-05-04 13:51 | 49.36006 | 1.88940 | 16952 ft | 347 kts | 211° |
| 2026-05-04 13:52 | 49.31795 | 1.85102 | 18456 ft | 356 kts | 210° |
| 2026-05-04 13:52 | 49.29699 | 1.83138 | 19155 ft | 358 kts | 210° |
| 2026-05-04 13:52 | 49.27569 | 1.81130 | 19880 ft | 360 kts | 210° |
| 2026-05-04 13:53 | 49.25427 | 1.79106 | 20535 ft | 363 kts | 210° |
| 2026-05-04 13:53 | 49.23297 | 1.76992 | 21203 ft | 365 kts | 218° |
| 2026-05-04 13:53 | 49.21628 | 1.74112 | 21860 ft | 370 kts | 236° |
| 2026-05-04 13:54 | 49.19100 | 1.67172 | 23062 ft | 377 kts | 239° |
| 2026-05-04 13:54 | 49.17840 | 1.63633 | 23664 ft | 379 kts | 239° |
| 2026-05-04 13:54 | 49.15319 | 1.56480 | 24655 ft | 384 kts | 239° |
| 2026-05-04 13:55 | 49.14049 | 1.52868 | 25148 ft | 386 kts | 239° |
| 2026-05-04 13:55 | 49.11505 | 1.45639 | 26125 ft | 391 kts | 239° |
| 2026-05-04 13:55 | 49.10214 | 1.41976 | 26582 ft | 393 kts | 239° |
| 2026-05-04 13:56 | 49.08910 | 1.38284 | 27054 ft | 395 kts | 239° |
| 2026-05-04 13:56 | 49.07601 | 1.34583 | 27523 ft | 397 kts | 239° |
| 2026-05-04 13:56 | 49.04958 | 1.27124 | 28431 ft | 401 kts | 239° |
| 2026-05-04 13:57 | 49.03626 | 1.23365 | 28870 ft | 403 kts | 239° |
| 2026-05-04 13:57 | 49.02332 | 1.19614 | 29330 ft | 406 kts | 239° |
| 2026-05-04 13:58 | 48.98354 | 1.08101 | 30507 ft | 412 kts | 239° |
| 2026-05-04 13:58 | 48.95656 | 1.00329 | 31174 ft | 416 kts | 239° |
| 2026-05-04 13:58 | 48.94295 | 0.96416 | 31479 ft | 419 kts | 239° |
| 2026-05-04 13:59 | 48.92943 | 0.92536 | 31799 ft | 421 kts | 239° |
| 2026-05-04 13:59 | 48.91567 | 0.88594 | 32135 ft | 422 kts | 239° |
| 2026-05-04 13:59 | 48.88815 | 0.80724 | 33011 ft | 419 kts | 239° |
| 2026-05-04 14:00 | 48.87443 | 0.76810 | 33431 ft | 419 kts | 239° |
| 2026-05-04 14:00 | 48.84722 | 0.69065 | 34225 ft | 416 kts | 239° |
| 2026-05-04 14:00 | 48.83356 | 0.65185 | 34540 ft | 416 kts | 239° |
| 2026-05-04 14:01 | 48.81987 | 0.61304 | 34836 ft | 417 kts | 239° |
| 2026-05-04 14:01 | 48.80614 | 0.57415 | 34963 ft | 417 kts | 239° |
| 2026-05-04 14:01 | 48.77443 | 0.50187 | 34963 ft | 410 kts | 226° |
| 2026-05-04 14:02 | 48.75591 | 0.46874 | 34965 ft | 411 kts | 227° |
| 2026-05-04 14:02 | 48.71914 | 0.40294 | 34962 ft | 411 kts | 227° |
| 2026-05-04 14:03 | 48.68196 | 0.33689 | 34968 ft | 411 kts | 227° |
| 2026-05-04 14:03 | 48.64464 | 0.27078 | 34959 ft | 412 kts | 227° |
| 2026-05-04 14:04 | 48.58914 | 0.17276 | 34961 ft | 412 kts | 227° |
| 2026-05-04 14:04 | 48.55826 | 0.11780 | 34954 ft | 413 kts | 227° |
| 2026-05-04 14:05 | 48.49604 | 0.00738 | 34974 ft | 414 kts | 227° |
| 2026-05-04 14:06 | 48.45891 | -0.05830 | 34955 ft | 414 kts | 227° |
| 2026-05-04 14:06 | 48.42145 | -0.12439 | 34951 ft | 415 kts | 227° |
| 2026-05-04 14:07 | 48.38383 | -0.19060 | 34964 ft | 415 kts | 227° |
| 2026-05-04 14:07 | 48.34639 | -0.25611 | 34951 ft | 415 kts | 226° |
| 2026-05-04 14:08 | 48.30839 | -0.32170 | 34953 ft | 415 kts | 226° |
| 2026-05-04 14:08 | 48.27070 | -0.38666 | 34952 ft | 415 kts | 226° |
| 2026-05-04 14:09 | 48.21368 | -0.48465 | 34955 ft | 414 kts | 226° |
| 2026-05-04 14:10 | 48.15698 | -0.58173 | 34961 ft | 414 kts | 226° |
| 2026-05-04 14:10 | 48.15540 | -0.58443 | 34964 ft | 413 kts | 226° |